sensor_id;sensor_type;location;lat;lon;timestamp;P1;durP1;ratioP1;P2;durP2;ratioP2
5718;SDS011;2884;47.734;9.244;2023-08-06T00:00:27;2.03;;;1.93;;
5718;SDS011;2884;47.734;9.244;2023-08-06T00:02:53;2.23;;;2.13;;
5718;SDS011;2884;47.734;9.244;2023-08-06T00:05:21;2.37;;;2.17;;
5718;SDS011;2884;47.734;9.244;2023-08-06T00:07:47;2.33;;;2.33;;
5718;SDS011;2884;47.734;9.244;2023-08-06T00:10:13;1.97;;;1.97;;
5718;SDS011;2884;47.734;9.244;2023-08-06T00:12:42;2.20;;;2.10;;
5718;SDS011;2884;47.734;9.244;2023-08-06T00:15:11;2.27;;;2.20;;
5718;SDS011;2884;47.734;9.244;2023-08-06T00:17:37;2.00;;;2.00;;
5718;SDS011;2884;47.734;9.244;2023-08-06T00:20:03;2.10;;;2.00;;
5718;SDS011;2884;47.734;9.244;2023-08-06T00:22:34;2.33;;;2.23;;
5718;SDS011;2884;47.734;9.244;2023-08-06T00:25:02;2.00;;;2.00;;
5718;SDS011;2884;47.734;9.244;2023-08-06T00:27:32;2.00;;;2.00;;
5718;SDS011;2884;47.734;9.244;2023-08-06T00:30:03;1.90;;;1.80;;
5718;SDS011;2884;47.734;9.244;2023-08-06T00:32:29;2.00;;;2.00;;
5718;SDS011;2884;47.734;9.244;2023-08-06T00:34:57;2.10;;;2.10;;
5718;SDS011;2884;47.734;9.244;2023-08-06T00:37:23;2.20;;;2.10;;
5718;SDS011;2884;47.734;9.244;2023-08-06T00:39:48;2.37;;;2.27;;
5718;SDS011;2884;47.734;9.244;2023-08-06T00:42:18;2.33;;;2.23;;
5718;SDS011;2884;47.734;9.244;2023-08-06T00:44:46;2.10;;;2.10;;
5718;SDS011;2884;47.734;9.244;2023-08-06T00:47:11;2.40;;;2.30;;
5718;SDS011;2884;47.734;9.244;2023-08-06T00:49:37;2.07;;;1.83;;
5718;SDS011;2884;47.734;9.244;2023-08-06T00:52:04;1.77;;;1.77;;
5718;SDS011;2884;47.734;9.244;2023-08-06T00:54:30;2.00;;;1.90;;
5718;SDS011;2884;47.734;9.244;2023-08-06T00:56:57;2.70;;;2.50;;
5718;SDS011;2884;47.734;9.244;2023-08-06T00:59:24;2.83;;;1.90;;
5718;SDS011;2884;47.734;9.244;2023-08-06T01:01:49;1.40;;;1.40;;
5718;SDS011;2884;47.734;9.244;2023-08-06T01:04:15;1.87;;;1.77;;
5718;SDS011;2884;47.734;9.244;2023-08-06T01:06:48;1.87;;;1.77;;
5718;SDS011;2884;47.734;9.244;2023-08-06T01:09:27;1.97;;;1.50;;
5718;SDS011;2884;47.734;9.244;2023-08-06T01:17:29;1.70;;;1.60;;
5718;SDS011;2884;47.734;9.244;2023-08-06T01:19:55;2.00;;;1.90;;
5718;SDS011;2884;47.734;9.244;2023-08-06T01:22:20;1.70;;;1.60;;
5718;SDS011;2884;47.734;9.244;2023-08-06T01:24:47;1.60;;;1.60;;
5718;SDS011;2884;47.734;9.244;2023-08-06T01:27:16;1.50;;;1.50;;
5718;SDS011;2884;47.734;9.244;2023-08-06T01:29:58;2.13;;;2.03;;
5718;SDS011;2884;47.734;9.244;2023-08-06T01:32:29;2.20;;;2.00;;
5718;SDS011;2884;47.734;9.244;2023-08-06T01:34:56;1.63;;;1.63;;
5718;SDS011;2884;47.734;9.244;2023-08-06T01:37:22;2.00;;;1.97;;
5718;SDS011;2884;47.734;9.244;2023-08-06T01:39:48;1.93;;;1.93;;
5718;SDS011;2884;47.734;9.244;2023-08-06T01:42:14;2.30;;;2.20;;
5718;SDS011;2884;47.734;9.244;2023-08-06T01:44:40;1.83;;;1.83;;
5718;SDS011;2884;47.734;9.244;2023-08-06T01:47:05;2.20;;;2.10;;
5718;SDS011;2884;47.734;9.244;2023-08-06T01:49:31;2.20;;;2.10;;
5718;SDS011;2884;47.734;9.244;2023-08-06T01:51:56;2.20;;;2.20;;
5718;SDS011;2884;47.734;9.244;2023-08-06T01:54:22;2.00;;;1.90;;
5718;SDS011;2884;47.734;9.244;2023-08-06T01:56:48;2.57;;;2.47;;
5718;SDS011;2884;47.734;9.244;2023-08-06T01:59:13;1.93;;;1.90;;
5718;SDS011;2884;47.734;9.244;2023-08-06T02:01:39;1.80;;;1.80;;
5718;SDS011;2884;47.734;9.244;2023-08-06T02:04:04;2.30;;;2.20;;
5718;SDS011;2884;47.734;9.244;2023-08-06T02:06:30;2.20;;;2.10;;
5718;SDS011;2884;47.734;9.244;2023-08-06T02:08:55;2.40;;;2.20;;
5718;SDS011;2884;47.734;9.244;2023-08-06T02:11:21;2.27;;;2.17;;
5718;SDS011;2884;47.734;9.244;2023-08-06T02:13:46;1.83;;;1.80;;
5718;SDS011;2884;47.734;9.244;2023-08-06T02:16:12;1.90;;;1.80;;
5718;SDS011;2884;47.734;9.244;2023-08-06T02:18:38;1.70;;;1.70;;
5718;SDS011;2884;47.734;9.244;2023-08-06T02:21:03;2.30;;;2.10;;
5718;SDS011;2884;47.734;9.244;2023-08-06T02:23:32;3.33;;;1.97;;
5718;SDS011;2884;47.734;9.244;2023-08-06T02:26:01;1.93;;;1.90;;
5718;SDS011;2884;47.734;9.244;2023-08-06T02:28:30;1.90;;;1.80;;
5718;SDS011;2884;47.734;9.244;2023-08-06T02:30:55;1.90;;;1.90;;
5718;SDS011;2884;47.734;9.244;2023-08-06T02:33:23;2.00;;;2.00;;
5718;SDS011;2884;47.734;9.244;2023-08-06T02:35:49;2.23;;;2.03;;
5718;SDS011;2884;47.734;9.244;2023-08-06T02:38:15;2.33;;;2.33;;
5718;SDS011;2884;47.734;9.244;2023-08-06T02:40:45;2.00;;;1.93;;
5718;SDS011;2884;47.734;9.244;2023-08-06T02:43:11;2.10;;;2.00;;
5718;SDS011;2884;47.734;9.244;2023-08-06T02:45:38;2.30;;;2.10;;
5718;SDS011;2884;47.734;9.244;2023-08-06T02:48:04;1.90;;;1.90;;
5718;SDS011;2884;47.734;9.244;2023-08-06T02:50:29;1.80;;;1.70;;
5718;SDS011;2884;47.734;9.244;2023-08-06T02:52:55;2.40;;;2.20;;
5718;SDS011;2884;47.734;9.244;2023-08-06T02:55:21;4.10;;;1.90;;
5718;SDS011;2884;47.734;9.244;2023-08-06T02:57:47;2.83;;;1.80;;
5718;SDS011;2884;47.734;9.244;2023-08-06T03:00:12;1.80;;;1.70;;
5718;SDS011;2884;47.734;9.244;2023-08-06T03:02:38;1.50;;;1.50;;
5718;SDS011;2884;47.734;9.244;2023-08-06T03:05:04;1.63;;;1.43;;
5718;SDS011;2884;47.734;9.244;2023-08-06T03:07:31;1.50;;;1.50;;
5718;SDS011;2884;47.734;9.244;2023-08-06T03:09:59;2.20;;;2.10;;
5718;SDS011;2884;47.734;9.244;2023-08-06T03:12:28;1.70;;;1.60;;
5718;SDS011;2884;47.734;9.244;2023-08-06T03:14:54;1.60;;;1.60;;
5718;SDS011;2884;47.734;9.244;2023-08-06T03:17:20;1.93;;;1.83;;
5718;SDS011;2884;47.734;9.244;2023-08-06T03:19:46;2.10;;;2.00;;
5718;SDS011;2884;47.734;9.244;2023-08-06T03:22:11;3.77;;;2.30;;
5718;SDS011;2884;47.734;9.244;2023-08-06T03:24:37;1.93;;;1.83;;
5718;SDS011;2884;47.734;9.244;2023-08-06T03:27:03;2.03;;;2.00;;
5718;SDS011;2884;47.734;9.244;2023-08-06T03:29:31;2.70;;;1.80;;
5718;SDS011;2884;47.734;9.244;2023-08-06T03:31:57;1.77;;;1.77;;
5718;SDS011;2884;47.734;9.244;2023-08-06T03:34:23;3.00;;;1.80;;
5718;SDS011;2884;47.734;9.244;2023-08-06T03:36:49;2.60;;;1.83;;
5718;SDS011;2884;47.734;9.244;2023-08-06T03:39:14;2.60;;;1.97;;
5718;SDS011;2884;47.734;9.244;2023-08-06T03:41:40;2.20;;;2.00;;
5718;SDS011;2884;47.734;9.244;2023-08-06T03:44:06;2.00;;;1.80;;
5718;SDS011;2884;47.734;9.244;2023-08-06T03:46:32;1.70;;;1.60;;
5718;SDS011;2884;47.734;9.244;2023-08-06T03:48:59;1.57;;;1.47;;
5718;SDS011;2884;47.734;9.244;2023-08-06T03:51:25;2.10;;;1.70;;
5718;SDS011;2884;47.734;9.244;2023-08-06T03:53:54;1.60;;;1.50;;
5718;SDS011;2884;47.734;9.244;2023-08-06T03:56:20;1.80;;;1.70;;
5718;SDS011;2884;47.734;9.244;2023-08-06T03:58:48;1.70;;;1.60;;
5718;SDS011;2884;47.734;9.244;2023-08-06T04:01:15;3.53;;;1.60;;
5718;SDS011;2884;47.734;9.244;2023-08-06T04:03:41;1.60;;;1.57;;
5718;SDS011;2884;47.734;9.244;2023-08-06T04:06:07;1.40;;;1.30;;
5718;SDS011;2884;47.734;9.244;2023-08-06T04:08:33;1.40;;;1.30;;
5718;SDS011;2884;47.734;9.244;2023-08-06T04:10:59;2.10;;;1.50;;
5718;SDS011;2884;47.734;9.244;2023-08-06T04:13:25;1.37;;;1.27;;
5718;SDS011;2884;47.734;9.244;2023-08-06T04:15:50;1.63;;;1.53;;
5718;SDS011;2884;47.734;9.244;2023-08-06T04:18:16;1.80;;;1.67;;
5718;SDS011;2884;47.734;9.244;2023-08-06T04:20:42;1.43;;;1.10;;
5718;SDS011;2884;47.734;9.244;2023-08-06T04:23:11;1.53;;;1.30;;
5718;SDS011;2884;47.734;9.244;2023-08-06T04:25:39;1.43;;;1.40;;
5718;SDS011;2884;47.734;9.244;2023-08-06T04:28:05;2.20;;;1.40;;
5718;SDS011;2884;47.734;9.244;2023-08-06T04:30:32;2.50;;;1.47;;
5718;SDS011;2884;47.734;9.244;2023-08-06T04:33:06;1.23;;;1.23;;
5718;SDS011;2884;47.734;9.244;2023-08-06T04:35:58;1.47;;;1.37;;
5718;SDS011;2884;47.734;9.244;2023-08-06T04:38:24;1.47;;;1.27;;
5718;SDS011;2884;47.734;9.244;2023-08-06T04:40:55;1.03;;;1.03;;
5718;SDS011;2884;47.734;9.244;2023-08-06T04:43:23;2.57;;;1.40;;
5718;SDS011;2884;47.734;9.244;2023-08-06T04:45:49;1.93;;;1.30;;
5718;SDS011;2884;47.734;9.244;2023-08-06T04:48:15;2.43;;;1.50;;
5718;SDS011;2884;47.734;9.244;2023-08-06T04:50:47;1.90;;;1.80;;
5718;SDS011;2884;47.734;9.244;2023-08-06T04:53:16;1.60;;;1.50;;
5718;SDS011;2884;47.734;9.244;2023-08-06T04:55:47;2.73;;;1.27;;
5718;SDS011;2884;47.734;9.244;2023-08-06T04:58:16;4.47;;;1.80;;
5718;SDS011;2884;47.734;9.244;2023-08-06T05:00:41;1.43;;;1.33;;
5718;SDS011;2884;47.734;9.244;2023-08-06T05:03:07;1.90;;;1.10;;
5718;SDS011;2884;47.734;9.244;2023-08-06T05:05:33;1.23;;;1.23;;
5718;SDS011;2884;47.734;9.244;2023-08-06T05:07:58;0.87;;;0.87;;
5718;SDS011;2884;47.734;9.244;2023-08-06T05:10:30;1.17;;;1.07;;
5718;SDS011;2884;47.734;9.244;2023-08-06T05:12:55;1.97;;;1.00;;
5718;SDS011;2884;47.734;9.244;2023-08-06T05:15:22;1.10;;;1.10;;
5718;SDS011;2884;47.734;9.244;2023-08-06T05:17:47;1.77;;;1.47;;
5718;SDS011;2884;47.734;9.244;2023-08-06T05:20:16;0.87;;;0.87;;
5718;SDS011;2884;47.734;9.244;2023-08-06T05:22:45;1.67;;;1.00;;
5718;SDS011;2884;47.734;9.244;2023-08-06T05:25:13;1.10;;;0.90;;
5718;SDS011;2884;47.734;9.244;2023-08-06T05:27:39;2.07;;;1.10;;
5718;SDS011;2884;47.734;9.244;2023-08-06T05:30:07;1.63;;;1.47;;
5718;SDS011;2884;47.734;9.244;2023-08-06T05:32:44;1.50;;;1.40;;
5718;SDS011;2884;47.734;9.244;2023-08-06T05:35:10;1.30;;;1.30;;
5718;SDS011;2884;47.734;9.244;2023-08-06T05:37:38;0.93;;;0.93;;
5718;SDS011;2884;47.734;9.244;2023-08-06T05:40:04;1.67;;;1.30;;
5718;SDS011;2884;47.734;9.244;2023-08-06T05:42:30;1.43;;;1.33;;
5718;SDS011;2884;47.734;9.244;2023-08-06T05:44:56;2.40;;;1.00;;
5718;SDS011;2884;47.734;9.244;2023-08-06T05:47:25;0.90;;;0.90;;
5718;SDS011;2884;47.734;9.244;2023-08-06T05:49:51;1.20;;;1.03;;
5718;SDS011;2884;47.734;9.244;2023-08-06T05:52:16;1.60;;;1.00;;
5718;SDS011;2884;47.734;9.244;2023-08-06T05:54:42;1.40;;;0.90;;
5718;SDS011;2884;47.734;9.244;2023-08-06T05:57:08;0.80;;;0.80;;
5718;SDS011;2884;47.734;9.244;2023-08-06T05:59:34;1.07;;;0.97;;
5718;SDS011;2884;47.734;9.244;2023-08-06T06:02:00;1.37;;;0.70;;
5718;SDS011;2884;47.734;9.244;2023-08-06T06:04:25;1.17;;;1.17;;
5718;SDS011;2884;47.734;9.244;2023-08-06T06:06:51;1.17;;;0.90;;
5718;SDS011;2884;47.734;9.244;2023-08-06T06:09:17;0.77;;;0.77;;
5718;SDS011;2884;47.734;9.244;2023-08-06T06:11:44;1.10;;;0.80;;
5718;SDS011;2884;47.734;9.244;2023-08-06T06:14:10;1.00;;;1.00;;
5718;SDS011;2884;47.734;9.244;2023-08-06T06:16:36;0.90;;;0.90;;
5718;SDS011;2884;47.734;9.244;2023-08-06T06:19:01;0.70;;;0.70;;
5718;SDS011;2884;47.734;9.244;2023-08-06T06:21:27;0.90;;;0.90;;
5718;SDS011;2884;47.734;9.244;2023-08-06T06:23:54;1.00;;;1.00;;
5718;SDS011;2884;47.734;9.244;2023-08-06T06:26:21;0.80;;;0.80;;
5718;SDS011;2884;47.734;9.244;2023-08-06T06:28:47;2.93;;;1.10;;
5718;SDS011;2884;47.734;9.244;2023-08-06T06:31:12;1.60;;;0.90;;
5718;SDS011;2884;47.734;9.244;2023-08-06T06:33:38;1.53;;;0.93;;
5718;SDS011;2884;47.734;9.244;2023-08-06T06:36:03;1.20;;;1.10;;
5718;SDS011;2884;47.734;9.244;2023-08-06T06:38:29;6.63;;;1.53;;
5718;SDS011;2884;47.734;9.244;2023-08-06T06:40:58;1.30;;;0.83;;
5718;SDS011;2884;47.734;9.244;2023-08-06T06:43:24;6.00;;;1.10;;
5718;SDS011;2884;47.734;9.244;2023-08-06T06:45:55;1.60;;;0.90;;
5718;SDS011;2884;47.734;9.244;2023-08-06T06:48:22;1.13;;;1.03;;
5718;SDS011;2884;47.734;9.244;2023-08-06T06:50:48;1.43;;;0.70;;
5718;SDS011;2884;47.734;9.244;2023-08-06T06:53:14;3.03;;;1.67;;
5718;SDS011;2884;47.734;9.244;2023-08-06T06:55:40;1.43;;;1.00;;
5718;SDS011;2884;47.734;9.244;2023-08-06T06:58:08;1.00;;;0.73;;
5718;SDS011;2884;47.734;9.244;2023-08-06T07:00:38;2.10;;;0.90;;
5718;SDS011;2884;47.734;9.244;2023-08-06T07:03:04;1.83;;;0.90;;
5718;SDS011;2884;47.734;9.244;2023-08-06T07:05:29;4.60;;;0.97;;
5718;SDS011;2884;47.734;9.244;2023-08-06T07:07:55;2.30;;;0.90;;
5718;SDS011;2884;47.734;9.244;2023-08-06T07:10:21;1.80;;;1.17;;
5718;SDS011;2884;47.734;9.244;2023-08-06T07:12:46;3.33;;;1.20;;
5718;SDS011;2884;47.734;9.244;2023-08-06T07:15:12;1.20;;;1.10;;
5718;SDS011;2884;47.734;9.244;2023-08-06T07:17:38;3.30;;;0.70;;
5718;SDS011;2884;47.734;9.244;2023-08-06T07:20:03;3.10;;;0.90;;
5718;SDS011;2884;47.734;9.244;2023-08-06T07:22:31;1.80;;;0.87;;
5718;SDS011;2884;47.734;9.244;2023-08-06T07:24:57;0.93;;;0.70;;
5718;SDS011;2884;47.734;9.244;2023-08-06T07:27:23;1.70;;;0.80;;
5718;SDS011;2884;47.734;9.244;2023-08-06T07:29:50;3.97;;;0.90;;
5718;SDS011;2884;47.734;9.244;2023-08-06T07:32:16;2.37;;;1.20;;
5718;SDS011;2884;47.734;9.244;2023-08-06T07:34:41;0.73;;;0.73;;
5718;SDS011;2884;47.734;9.244;2023-08-06T07:37:07;0.90;;;0.90;;
5718;SDS011;2884;47.734;9.244;2023-08-06T07:39:33;3.33;;;1.03;;
5718;SDS011;2884;47.734;9.244;2023-08-06T07:41:58;1.00;;;0.90;;
5718;SDS011;2884;47.734;9.244;2023-08-06T07:44:25;0.70;;;0.70;;
5718;SDS011;2884;47.734;9.244;2023-08-06T07:46:50;0.73;;;0.70;;
5718;SDS011;2884;47.734;9.244;2023-08-06T07:49:16;1.80;;;0.80;;
5718;SDS011;2884;47.734;9.244;2023-08-06T07:51:41;1.27;;;0.70;;
5718;SDS011;2884;47.734;9.244;2023-08-06T07:54:08;3.80;;;0.80;;
5718;SDS011;2884;47.734;9.244;2023-08-06T07:56:33;0.80;;;0.63;;
5718;SDS011;2884;47.734;9.244;2023-08-06T07:59:01;1.10;;;0.80;;
5718;SDS011;2884;47.734;9.244;2023-08-06T08:01:27;1.10;;;0.80;;
5718;SDS011;2884;47.734;9.244;2023-08-06T08:03:52;1.20;;;0.80;;
5718;SDS011;2884;47.734;9.244;2023-08-06T08:06:18;0.67;;;0.67;;
5718;SDS011;2884;47.734;9.244;2023-08-06T08:08:44;0.60;;;0.60;;
5718;SDS011;2884;47.734;9.244;2023-08-06T08:11:10;0.50;;;0.50;;
5718;SDS011;2884;47.734;9.244;2023-08-06T08:13:36;1.60;;;1.17;;
5718;SDS011;2884;47.734;9.244;2023-08-06T08:16:01;0.63;;;0.63;;
5718;SDS011;2884;47.734;9.244;2023-08-06T08:18:27;0.70;;;0.70;;
5718;SDS011;2884;47.734;9.244;2023-08-06T08:20:53;0.90;;;0.90;;
5718;SDS011;2884;47.734;9.244;2023-08-06T08:23:19;1.27;;;1.17;;
5718;SDS011;2884;47.734;9.244;2023-08-06T08:25:44;0.80;;;0.80;;
5718;SDS011;2884;47.734;9.244;2023-08-06T08:28:10;0.90;;;0.90;;
5718;SDS011;2884;47.734;9.244;2023-08-06T08:30:36;1.37;;;0.80;;
5718;SDS011;2884;47.734;9.244;2023-08-06T08:33:01;0.70;;;0.70;;
5718;SDS011;2884;47.734;9.244;2023-08-06T08:35:27;0.77;;;0.77;;
5718;SDS011;2884;47.734;9.244;2023-08-06T08:37:53;0.97;;;0.90;;
5718;SDS011;2884;47.734;9.244;2023-08-06T08:40:19;0.70;;;0.70;;
5718;SDS011;2884;47.734;9.244;2023-08-06T08:42:46;0.60;;;0.60;;
5718;SDS011;2884;47.734;9.244;2023-08-06T08:45:13;1.03;;;0.90;;
5718;SDS011;2884;47.734;9.244;2023-08-06T08:47:40;0.73;;;0.73;;
5718;SDS011;2884;47.734;9.244;2023-08-06T08:50:09;1.20;;;0.80;;
5718;SDS011;2884;47.734;9.244;2023-08-06T08:52:36;1.10;;;0.80;;
5718;SDS011;2884;47.734;9.244;2023-08-06T08:55:03;0.70;;;0.70;;
5718;SDS011;2884;47.734;9.244;2023-08-06T08:57:30;0.80;;;0.60;;
5718;SDS011;2884;47.734;9.244;2023-08-06T08:59:56;0.70;;;0.70;;
5718;SDS011;2884;47.734;9.244;2023-08-06T09:02:21;1.43;;;0.90;;
5718;SDS011;2884;47.734;9.244;2023-08-06T09:04:50;1.50;;;0.70;;
5718;SDS011;2884;47.734;9.244;2023-08-06T09:07:17;0.70;;;0.70;;
5718;SDS011;2884;47.734;9.244;2023-08-06T09:09:46;1.00;;;1.00;;
5718;SDS011;2884;47.734;9.244;2023-08-06T09:12:14;0.60;;;0.60;;
5718;SDS011;2884;47.734;9.244;2023-08-06T09:14:41;0.63;;;0.63;;
5718;SDS011;2884;47.734;9.244;2023-08-06T09:17:07;0.60;;;0.60;;
5718;SDS011;2884;47.734;9.244;2023-08-06T09:19:34;0.67;;;0.67;;
5718;SDS011;2884;47.734;9.244;2023-08-06T09:21:59;0.70;;;0.70;;
5718;SDS011;2884;47.734;9.244;2023-08-06T09:24:25;1.17;;;0.80;;
5718;SDS011;2884;47.734;9.244;2023-08-06T09:26:54;1.07;;;1.00;;
5718;SDS011;2884;47.734;9.244;2023-08-06T09:29:19;0.90;;;0.80;;
5718;SDS011;2884;47.734;9.244;2023-08-06T09:34:16;0.70;;;0.70;;
5718;SDS011;2884;47.734;9.244;2023-08-06T09:36:43;0.70;;;0.70;;
5718;SDS011;2884;47.734;9.244;2023-08-06T09:39:13;1.27;;;1.07;;
5718;SDS011;2884;47.734;9.244;2023-08-06T09:41:40;0.80;;;0.80;;
5718;SDS011;2884;47.734;9.244;2023-08-06T09:44:13;0.80;;;0.80;;
5718;SDS011;2884;47.734;9.244;2023-08-06T09:46:49;0.77;;;0.77;;
5718;SDS011;2884;47.734;9.244;2023-08-06T09:49:17;0.70;;;0.70;;
5718;SDS011;2884;47.734;9.244;2023-08-06T09:51:43;0.70;;;0.70;;
5718;SDS011;2884;47.734;9.244;2023-08-06T09:54:11;0.90;;;0.90;;
5718;SDS011;2884;47.734;9.244;2023-08-06T09:56:37;0.77;;;0.77;;
5718;SDS011;2884;47.734;9.244;2023-08-06T09:59:06;0.70;;;0.70;;
5718;SDS011;2884;47.734;9.244;2023-08-06T10:01:33;0.80;;;0.80;;
5718;SDS011;2884;47.734;9.244;2023-08-06T10:03:59;0.80;;;0.80;;
5718;SDS011;2884;47.734;9.244;2023-08-06T10:06:26;0.70;;;0.70;;
5718;SDS011;2884;47.734;9.244;2023-08-06T10:08:52;0.73;;;0.73;;
5718;SDS011;2884;47.734;9.244;2023-08-06T10:11:17;0.63;;;0.63;;
5718;SDS011;2884;47.734;9.244;2023-08-06T10:13:44;0.60;;;0.60;;
5718;SDS011;2884;47.734;9.244;2023-08-06T10:16:10;0.80;;;0.80;;
5718;SDS011;2884;47.734;9.244;2023-08-06T10:18:36;1.17;;;0.70;;
5718;SDS011;2884;47.734;9.244;2023-08-06T10:21:02;0.70;;;0.70;;
5718;SDS011;2884;47.734;9.244;2023-08-06T10:23:36;1.60;;;0.67;;
5718;SDS011;2884;47.734;9.244;2023-08-06T10:26:03;0.60;;;0.60;;
5718;SDS011;2884;47.734;9.244;2023-08-06T10:28:38;0.80;;;0.80;;
5718;SDS011;2884;47.734;9.244;2023-08-06T10:31:05;0.70;;;0.70;;
5718;SDS011;2884;47.734;9.244;2023-08-06T10:33:44;0.50;;;0.50;;
5718;SDS011;2884;47.734;9.244;2023-08-06T10:36:10;0.50;;;0.50;;
5718;SDS011;2884;47.734;9.244;2023-08-06T10:38:49;0.60;;;0.60;;
5718;SDS011;2884;47.734;9.244;2023-08-06T10:41:16;0.50;;;0.50;;
5718;SDS011;2884;47.734;9.244;2023-08-06T10:43:48;0.67;;;0.67;;
5718;SDS011;2884;47.734;9.244;2023-08-06T10:46:29;1.50;;;0.60;;
5718;SDS011;2884;47.734;9.244;2023-08-06T10:48:54;0.50;;;0.50;;
5718;SDS011;2884;47.734;9.244;2023-08-06T10:51:20;0.60;;;0.60;;
5718;SDS011;2884;47.734;9.244;2023-08-06T10:53:49;0.53;;;0.53;;
5718;SDS011;2884;47.734;9.244;2023-08-06T10:56:19;0.60;;;0.60;;
5718;SDS011;2884;47.734;9.244;2023-08-06T10:58:47;0.60;;;0.60;;
5718;SDS011;2884;47.734;9.244;2023-08-06T11:01:13;0.60;;;0.60;;
5718;SDS011;2884;47.734;9.244;2023-08-06T11:03:39;0.60;;;0.60;;
5718;SDS011;2884;47.734;9.244;2023-08-06T11:06:08;0.77;;;0.50;;
5718;SDS011;2884;47.734;9.244;2023-08-06T11:08:35;1.10;;;0.70;;
5718;SDS011;2884;47.734;9.244;2023-08-06T11:11:12;1.13;;;0.60;;
5718;SDS011;2884;47.734;9.244;2023-08-06T11:13:39;0.90;;;0.60;;
5718;SDS011;2884;47.734;9.244;2023-08-06T11:16:05;0.70;;;0.60;;
5718;SDS011;2884;47.734;9.244;2023-08-06T11:18:31;0.73;;;0.73;;
5718;SDS011;2884;47.734;9.244;2023-08-06T11:20:58;0.50;;;0.50;;
5718;SDS011;2884;47.734;9.244;2023-08-06T11:23:29;1.57;;;0.60;;
5718;SDS011;2884;47.734;9.244;2023-08-06T11:25:55;0.50;;;0.50;;
5718;SDS011;2884;47.734;9.244;2023-08-06T11:28:24;0.60;;;0.60;;
5718;SDS011;2884;47.734;9.244;2023-08-06T11:30:50;0.67;;;0.50;;
5718;SDS011;2884;47.734;9.244;2023-08-06T11:33:22;0.50;;;0.50;;
5718;SDS011;2884;47.734;9.244;2023-08-06T11:35:51;0.50;;;0.50;;
5718;SDS011;2884;47.734;9.244;2023-08-06T11:38:20;0.40;;;0.40;;
5718;SDS011;2884;47.734;9.244;2023-08-06T11:40:46;1.70;;;0.40;;
5718;SDS011;2884;47.734;9.244;2023-08-06T11:43:13;0.70;;;0.50;;
5718;SDS011;2884;47.734;9.244;2023-08-06T11:45:40;1.70;;;0.50;;
5718;SDS011;2884;47.734;9.244;2023-08-06T11:48:06;0.97;;;0.50;;
5718;SDS011;2884;47.734;9.244;2023-08-06T11:50:36;0.40;;;0.40;;
5718;SDS011;2884;47.734;9.244;2023-08-06T11:53:04;0.70;;;0.70;;
5718;SDS011;2884;47.734;9.244;2023-08-06T11:55:30;0.50;;;0.50;;
5718;SDS011;2884;47.734;9.244;2023-08-06T11:57:56;0.50;;;0.50;;
5718;SDS011;2884;47.734;9.244;2023-08-06T12:00:25;3.20;;;0.63;;
5718;SDS011;2884;47.734;9.244;2023-08-06T12:02:52;0.57;;;0.57;;
5718;SDS011;2884;47.734;9.244;2023-08-06T12:05:22;0.50;;;0.50;;
5718;SDS011;2884;47.734;9.244;2023-08-06T12:07:50;0.40;;;0.40;;
5718;SDS011;2884;47.734;9.244;2023-08-06T12:10:17;2.20;;;0.50;;
5718;SDS011;2884;47.734;9.244;2023-08-06T12:12:45;1.37;;;0.60;;
5718;SDS011;2884;47.734;9.244;2023-08-06T12:15:10;1.13;;;0.60;;
5718;SDS011;2884;47.734;9.244;2023-08-06T12:17:37;0.50;;;0.40;;
5718;SDS011;2884;47.734;9.244;2023-08-06T12:20:03;1.43;;;0.50;;
5718;SDS011;2884;47.734;9.244;2023-08-06T12:22:31;0.50;;;0.50;;
5718;SDS011;2884;47.734;9.244;2023-08-06T12:25:00;0.50;;;0.50;;
5718;SDS011;2884;47.734;9.244;2023-08-06T12:27:32;0.50;;;0.50;;
5718;SDS011;2884;47.734;9.244;2023-08-06T12:29:57;0.87;;;0.50;;
5718;SDS011;2884;47.734;9.244;2023-08-06T12:32:23;0.50;;;0.50;;
5718;SDS011;2884;47.734;9.244;2023-08-06T12:34:48;0.60;;;0.60;;
5718;SDS011;2884;47.734;9.244;2023-08-06T12:37:14;0.50;;;0.50;;
5718;SDS011;2884;47.734;9.244;2023-08-06T12:39:39;0.73;;;0.60;;
5718;SDS011;2884;47.734;9.244;2023-08-06T12:42:05;0.40;;;0.40;;
5718;SDS011;2884;47.734;9.244;2023-08-06T12:44:31;1.50;;;0.50;;
5718;SDS011;2884;47.734;9.244;2023-08-06T12:46:57;0.60;;;0.60;;
5718;SDS011;2884;47.734;9.244;2023-08-06T12:49:24;1.90;;;0.50;;
5718;SDS011;2884;47.734;9.244;2023-08-06T12:51:51;4.00;;;0.90;;
5718;SDS011;2884;47.734;9.244;2023-08-06T12:54:17;0.73;;;0.50;;
5718;SDS011;2884;47.734;9.244;2023-08-06T12:56:44;0.57;;;0.57;;
5718;SDS011;2884;47.734;9.244;2023-08-06T12:59:13;0.80;;;0.50;;
5718;SDS011;2884;47.734;9.244;2023-08-06T13:01:39;0.90;;;0.60;;
5718;SDS011;2884;47.734;9.244;2023-08-06T13:04:05;0.40;;;0.40;;
5718;SDS011;2884;47.734;9.244;2023-08-06T13:06:31;0.87;;;0.60;;
5718;SDS011;2884;47.734;9.244;2023-08-06T13:09:01;0.50;;;0.50;;
5718;SDS011;2884;47.734;9.244;2023-08-06T13:11:31;0.50;;;0.50;;
5718;SDS011;2884;47.734;9.244;2023-08-06T13:13:59;0.50;;;0.50;;
5718;SDS011;2884;47.734;9.244;2023-08-06T13:16:29;0.50;;;0.50;;
5718;SDS011;2884;47.734;9.244;2023-08-06T13:18:55;0.60;;;0.60;;
5718;SDS011;2884;47.734;9.244;2023-08-06T13:21:20;0.50;;;0.50;;
5718;SDS011;2884;47.734;9.244;2023-08-06T13:23:46;0.77;;;0.50;;
5718;SDS011;2884;47.734;9.244;2023-08-06T13:26:13;1.03;;;0.60;;
5718;SDS011;2884;47.734;9.244;2023-08-06T13:28:38;0.70;;;0.70;;
5718;SDS011;2884;47.734;9.244;2023-08-06T13:31:04;0.60;;;0.60;;
5718;SDS011;2884;47.734;9.244;2023-08-06T13:33:30;1.27;;;0.60;;
5718;SDS011;2884;47.734;9.244;2023-08-06T13:35:55;0.60;;;0.60;;
5718;SDS011;2884;47.734;9.244;2023-08-06T13:38:21;1.37;;;0.70;;
5718;SDS011;2884;47.734;9.244;2023-08-06T13:40:46;0.60;;;0.60;;
5718;SDS011;2884;47.734;9.244;2023-08-06T13:43:13;0.70;;;0.70;;
5718;SDS011;2884;47.734;9.244;2023-08-06T13:45:38;0.70;;;0.70;;
5718;SDS011;2884;47.734;9.244;2023-08-06T13:48:04;0.70;;;0.70;;
5718;SDS011;2884;47.734;9.244;2023-08-06T13:50:33;0.67;;;0.67;;
5718;SDS011;2884;47.734;9.244;2023-08-06T13:52:58;0.70;;;0.70;;
5718;SDS011;2884;47.734;9.244;2023-08-06T13:55:24;0.80;;;0.80;;
5718;SDS011;2884;47.734;9.244;2023-08-06T13:57:49;2.63;;;0.80;;
5718;SDS011;2884;47.734;9.244;2023-08-06T14:00:16;0.90;;;0.90;;
5718;SDS011;2884;47.734;9.244;2023-08-06T14:02:41;0.80;;;0.80;;
5718;SDS011;2884;47.734;9.244;2023-08-06T14:05:09;0.90;;;0.90;;
5718;SDS011;2884;47.734;9.244;2023-08-06T14:07:35;4.93;;;0.83;;
5718;SDS011;2884;47.734;9.244;2023-08-06T14:10:00;1.47;;;0.90;;
5718;SDS011;2884;47.734;9.244;2023-08-06T14:12:26;1.13;;;1.03;;
5718;SDS011;2884;47.734;9.244;2023-08-06T14:14:51;1.63;;;0.67;;
5718;SDS011;2884;47.734;9.244;2023-08-06T14:17:17;1.00;;;0.70;;
5718;SDS011;2884;47.734;9.244;2023-08-06T14:19:43;4.50;;;0.90;;
5718;SDS011;2884;47.734;9.244;2023-08-06T14:22:08;0.70;;;0.70;;
5718;SDS011;2884;47.734;9.244;2023-08-06T14:24:34;0.77;;;0.77;;
5718;SDS011;2884;47.734;9.244;2023-08-06T14:26:59;0.73;;;0.63;;
5718;SDS011;2884;47.734;9.244;2023-08-06T14:29:25;0.73;;;0.60;;
5718;SDS011;2884;47.734;9.244;2023-08-06T14:31:51;0.73;;;0.70;;
5718;SDS011;2884;47.734;9.244;2023-08-06T14:34:16;1.00;;;0.80;;
5718;SDS011;2884;47.734;9.244;2023-08-06T14:36:42;1.23;;;0.70;;
5718;SDS011;2884;47.734;9.244;2023-08-06T14:39:08;1.50;;;0.60;;
5718;SDS011;2884;47.734;9.244;2023-08-06T14:41:33;2.20;;;0.70;;
5718;SDS011;2884;47.734;9.244;2023-08-06T14:43:59;0.70;;;0.70;;
5718;SDS011;2884;47.734;9.244;2023-08-06T14:46:25;1.10;;;0.93;;
5718;SDS011;2884;47.734;9.244;2023-08-06T14:48:50;1.10;;;1.00;;
5718;SDS011;2884;47.734;9.244;2023-08-06T14:51:16;0.70;;;0.70;;
5718;SDS011;2884;47.734;9.244;2023-08-06T14:53:44;2.50;;;0.90;;
5718;SDS011;2884;47.734;9.244;2023-08-06T14:56:10;3.77;;;0.90;;
5718;SDS011;2884;47.734;9.244;2023-08-06T14:58:35;0.80;;;0.73;;
5718;SDS011;2884;47.734;9.244;2023-08-06T15:01:01;2.23;;;1.17;;
5718;SDS011;2884;47.734;9.244;2023-08-06T15:03:26;0.80;;;0.80;;
5718;SDS011;2884;47.734;9.244;2023-08-06T15:05:53;1.90;;;0.83;;
5718;SDS011;2884;47.734;9.244;2023-08-06T15:08:19;2.70;;;1.20;;
5718;SDS011;2884;47.734;9.244;2023-08-06T15:10:53;0.70;;;0.70;;
5718;SDS011;2884;47.734;9.244;2023-08-06T15:13:19;0.80;;;0.80;;
5718;SDS011;2884;47.734;9.244;2023-08-06T15:15:48;0.73;;;0.70;;
5718;SDS011;2884;47.734;9.244;2023-08-06T15:18:14;1.03;;;0.93;;
5718;SDS011;2884;47.734;9.244;2023-08-06T15:20:41;2.63;;;0.87;;